Time,TemperatureF,DewpointF,PressureIn,WindDirection,WindDirectionDegrees,WindSpeedMPH,WindSpeedGustMPH,Humidity,HourlyPrecipIn,Conditions,Clouds,dailyrainin,SoftwareType,DateUTC
2013-12-10 00:14:00,30.6,30.1,30.07,NE,45,0.0,-999.0,98,-99.99,,,0.00,Acu-Link.com,2013-12-10 06:14:00,
2013-12-10 00:29:00,30.4,29.9,30.07,NNW,337,0.0,-999.0,98,-99.99,,,0.00,Acu-Link.com,2013-12-10 06:29:00,
2013-12-10 00:44:00,30.4,29.9,30.08,NNE,22,0.0,-999.0,98,-99.99,,,0.00,Acu-Link.com,2013-12-10 06:44:00,
2013-12-10 00:59:00,30.2,29.7,30.09,NW,315,0.0,-999.0,98,-99.99,,,0.00,Acu-Link.com,2013-12-10 06:59:00,
2013-12-10 01:14:00,30.2,29.7,30.08,NW,315,0.0,-999.0,98,-99.99,,,0.00,Acu-Link.com,2013-12-10 07:14:00,
2013-12-10 01:29:00,30.0,29.5,30.08,West,270,0.0,-999.0,98,-99.99,,,0.00,Acu-Link.com,2013-12-10 07:29:00,
2013-12-10 01:44:00,29.8,29.3,30.08,NW,315,0.0,-999.0,98,-99.99,,,0.00,Acu-Link.com,2013-12-10 07:44:00,
2013-12-10 02:00:00,29.8,29.3,30.09,North,0,0.0,-999.0,98,-99.99,,,0.00,Acu-Link.com,2013-12-10 08:00:00,
2013-12-10 02:15:00,29.8,29.3,30.10,NW,315,0.0,-999.0,98,-99.99,,,0.00,Acu-Link.com,2013-12-10 08:15:00,
2013-12-10 02:30:00,29.7,29.2,30.10,WNW,292,0.0,-999.0,98,-99.99,,,0.00,Acu-Link.com,2013-12-10 08:30:00,
2013-12-10 02:45:00,29.1,28.4,30.11,NW,315,0.0,-999.0,97,-99.99,,,0.00,Acu-Link.com,2013-12-10 08:45:00,
2013-12-10 03:00:00,28.6,-33.7,30.11,NNW,337,0.0,-999.0,5,-99.99,,,0.00,Acu-Link.com,2013-12-10 09:00:00,
2013-12-10 03:15:00,28.2,27.7,30.11,NNW,337,0.0,-999.0,98,-99.99,,,0.00,Acu-Link.com,2013-12-10 09:15:00,
2013-12-10 03:30:00,27.9,-31.0,30.12,NW,315,0.0,-999.0,6,-99.99,,,0.00,Acu-Link.com,2013-12-10 09:30:00,
2013-12-10 03:46:00,27.7,-34.4,30.13,WNW,292,0.0,-999.0,5,-99.99,,,0.00,Acu-Link.com,2013-12-10 09:46:00,
2013-12-10 04:01:00,27.3,-20.2,30.14,NW,315,0.0,-999.0,11,-99.99,,,0.00,Acu-Link.com,2013-12-10 10:01:00,
2013-12-10 04:16:00,27.0,-18.8,30.15,West,270,0.0,-999.0,12,-99.99,,,0.00,Acu-Link.com,2013-12-10 10:16:00,
2013-12-10 04:31:00,27.0,-6.7,30.16,NNE,22,0.0,-999.0,22,-99.99,,,0.00,Acu-Link.com,2013-12-10 10:31:00,
2013-12-10 04:46:00,26.4,-17.7,30.18,NNW,337,0.0,-999.0,13,-99.99,,,0.00,Acu-Link.com,2013-12-10 10:46:00,
2013-12-10 05:01:00,26.1,-16.5,30.19,NNW,337,2.7,-999.0,14,-99.99,,,0.00,Acu-Link.com,2013-12-10 11:01:00,
2013-12-10 05:17:00,25.7,-5.2,30.20,North,0,2.7,-999.0,25,-99.99,,,0.00,Acu-Link.com,2013-12-10 11:17:00,
2013-12-10 05:32:00,25.2,0.8,30.22,West,270,2.7,-999.0,34,-99.99,,,0.00,Acu-Link.com,2013-12-10 11:32:00,
2013-12-10 05:47:00,25.0,0.6,30.23,WNW,292,0.0,-999.0,34,-99.99,,,0.00,Acu-Link.com,2013-12-10 11:47:00,
2013-12-10 06:02:00,24.6,0.9,30.23,NW,315,0.0,-999.0,35,-99.99,,,0.00,Acu-Link.com,2013-12-10 12:02:00,
2013-12-10 06:17:00,24.3,0.6,30.23,NNE,22,0.0,-999.0,35,-99.99,,,0.00,Acu-Link.com,2013-12-10 12:17:00,
2013-12-10 06:32:00,23.7,-3.1,30.23,NNW,337,0.0,-999.0,30,-99.99,,,0.00,Acu-Link.com,2013-12-10 12:32:00,
2013-12-10 06:47:00,23.2,-6.5,30.23,NNW,337,0.0,-999.0,26,-99.99,,,0.00,Acu-Link.com,2013-12-10 12:47:00,
2013-12-10 07:03:00,22.5,-7.1,30.25,NNW,337,0.0,-999.0,26,-99.99,,,0.00,Acu-Link.com,2013-12-10 13:03:00,
2013-12-10 07:18:00,22.3,-11.6,30.25,NNW,337,0.0,-999.0,21,-99.99,,,0.00,Acu-Link.com,2013-12-10 13:18:00,
2013-12-10 07:33:00,22.3,-64.1,30.25,NNW,337,0.0,-999.0,1,-99.99,,,0.00,Acu-Link.com,2013-12-10 13:33:00,
2013-12-10 07:48:00,24.4,23.9,30.25,NNW,337,0.0,-999.0,98,-99.99,,,0.00,Acu-Link.com,2013-12-10 13:48:00,
2013-12-10 08:03:00,26.6,10.9,30.25,ENE,67,0.0,-999.0,51,-99.99,,,0.00,Acu-Link.com,2013-12-10 14:03:00,
2013-12-10 08:18:00,28.0,14.8,30.25,NNE,22,0.0,-999.0,57,-99.99,,,0.00,Acu-Link.com,2013-12-10 14:18:00,
2013-12-10 08:34:00,28.2,16.5,30.27,NNE,22,0.0,-999.0,61,-99.99,,,0.00,Acu-Link.com,2013-12-10 14:34:00,
2013-12-10 08:49:00,28.0,16.7,30.28,East,90,0.0,-999.0,62,-99.99,,,0.00,Acu-Link.com,2013-12-10 14:49:00,
2013-12-10 09:04:00,28.9,16.8,30.29,NW,315,0.0,-999.0,60,-99.99,,,0.00,Acu-Link.com,2013-12-10 15:04:00,
2013-12-10 09:19:00,29.5,18.5,30.28,WNW,292,0.0,-999.0,63,-99.99,,,0.00,Acu-Link.com,2013-12-10 15:19:00,
2013-12-10 09:34:00,29.8,19.1,30.29,West,270,0.0,-999.0,64,-99.99,,,0.00,Acu-Link.com,2013-12-10 15:34:00,
2013-12-10 09:49:00,30.7,20.4,30.30,NW,315,0.0,-999.0,65,-99.99,,,0.00,Acu-Link.com,2013-12-10 15:49:00,
2013-12-10 10:04:00,31.6,21.2,30.30,North,0,0.0,-999.0,65,-99.99,,,0.00,Acu-Link.com,2013-12-10 16:04:00,
2013-12-10 10:19:00,32.2,22.1,30.30,NNE,22,0.0,-999.0,66,-99.99,,,0.00,Acu-Link.com,2013-12-10 16:19:00,
2013-12-10 10:34:00,33.1,22.6,30.30,NE,45,0.0,-999.0,65,-99.99,,,0.00,Acu-Link.com,2013-12-10 16:34:00,
2013-12-10 10:50:00,33.4,22.9,30.31,East,90,0.0,-999.0,65,-99.99,,,0.00,Acu-Link.com,2013-12-10 16:50:00,
2013-12-10 11:05:00,34.9,24.7,30.30,NW,315,0.0,-999.0,66,-99.99,,,0.00,Acu-Link.com,2013-12-10 17:05:00,
2013-12-10 11:20:00,35.4,24.8,30.29,North,0,0.0,-999.0,65,-99.99,,,0.01,Acu-Link.com,2013-12-10 17:20:00,
2013-12-10 11:35:00,36.0,25.4,30.28,West,270,0.0,-999.0,65,-99.99,,,0.01,Acu-Link.com,2013-12-10 17:35:00,
2013-12-10 11:51:00,37.0,26.3,30.27,West,270,0.0,-999.0,65,-99.99,,,0.01,Acu-Link.com,2013-12-10 17:51:00,
2013-12-10 12:06:00,37.6,26.2,30.26,WNW,292,0.0,-999.0,63,-99.99,,,0.02,Acu-Link.com,2013-12-10 18:06:00,
2013-12-10 12:21:00,39.2,26.5,30.26,West,270,0.0,-999.0,60,-99.99,,,0.02,Acu-Link.com,2013-12-10 18:21:00,
2013-12-10 12:36:00,39.0,28.2,30.25,NNW,337,0.0,-999.0,65,-99.99,,,0.03,Acu-Link.com,2013-12-10 18:36:00,
2013-12-10 12:51:00,39.9,28.0,30.25,NNE,22,0.0,-999.0,62,-99.99,,,0.03,Acu-Link.com,2013-12-10 18:51:00,
2013-12-10 13:06:00,40.5,28.5,30.25,NW,315,0.0,-999.0,62,-99.99,,,0.03,Acu-Link.com,2013-12-10 19:06:00,
2013-12-10 13:21:00,40.6,27.4,30.25,NE,45,0.0,-999.0,59,-99.99,,,0.04,Acu-Link.com,2013-12-10 19:21:00,
2013-12-10 13:36:00,40.8,27.6,30.25,SW,225,0.0,-999.0,59,-99.99,,,0.04,Acu-Link.com,2013-12-10 19:36:00,
2013-12-10 13:52:00,41.2,26.7,30.25,NNW,337,0.0,-999.0,56,-99.99,,,0.04,Acu-Link.com,2013-12-10 19:52:00,
2013-12-10 14:07:00,41.0,28.2,30.24,ENE,67,0.0,-999.0,60,-99.99,,,0.04,Acu-Link.com,2013-12-10 20:07:00,
2013-12-10 14:22:00,41.0,27.8,30.25,WNW,292,0.0,-999.0,59,-99.99,,,0.04,Acu-Link.com,2013-12-10 20:22:00,
2013-12-10 14:37:00,41.2,28.0,30.24,NW,315,0.0,-999.0,59,-99.99,,,0.04,Acu-Link.com,2013-12-10 20:37:00,
2013-12-10 14:52:00,40.1,28.1,30.24,NW,315,0.0,-999.0,62,-99.99,,,0.04,Acu-Link.com,2013-12-10 20:52:00,
2013-12-10 15:07:00,41.2,27.6,30.24,NW,315,0.0,-999.0,58,-99.99,,,0.04,Acu-Link.com,2013-12-10 21:07:00,
2013-12-10 15:22:00,40.1,27.7,30.24,NW,315,0.0,-999.0,61,-99.99,,,0.04,Acu-Link.com,2013-12-10 21:22:00,
2013-12-10 15:38:00,39.4,28.6,30.24,NE,45,0.0,-999.0,65,-99.99,,,0.04,Acu-Link.com,2013-12-10 21:38:00,
2013-12-10 15:53:00,38.7,28.3,30.24,West,270,0.0,-999.0,66,-99.99,,,0.04,Acu-Link.com,2013-12-10 21:53:00,
2013-12-10 16:08:00,37.9,28.3,30.23,North,0,0.0,-999.0,68,-99.99,,,0.04,Acu-Link.com,2013-12-10 22:08:00,
2013-12-10 16:23:00,37.2,28.3,30.24,NNW,337,0.0,-999.0,70,-99.99,,,0.04,Acu-Link.com,2013-12-10 22:23:00,
2013-12-10 16:38:00,36.1,27.6,30.23,NNW,337,0.0,-999.0,71,-99.99,,,0.04,Acu-Link.com,2013-12-10 22:38:00,
2013-12-10 16:53:00,34.7,27.3,30.23,NNW,337,0.0,-999.0,74,-99.99,,,0.04,Acu-Link.com,2013-12-10 22:53:00,
2013-12-10 17:08:00,32.9,25.9,30.22,NNW,337,0.0,-999.0,75,-99.99,,,0.04,Acu-Link.com,2013-12-10 23:08:00,
2013-12-10 17:23:00,31.6,24.3,30.22,NNW,337,0.0,-999.0,74,-99.99,,,0.04,Acu-Link.com,2013-12-10 23:23:00,
2013-12-10 17:39:00,30.4,21.5,30.22,NNW,337,0.0,-999.0,69,-99.99,,,0.04,Acu-Link.com,2013-12-10 23:39:00,
2013-12-10 17:54:00,29.5,19.2,30.22,NNW,337,0.0,-999.0,65,-99.99,,,0.04,Acu-Link.com,2013-12-10 23:54:00,
2013-12-10 18:09:00,28.4,15.5,30.21,NNW,337,0.0,-999.0,58,-99.99,,,0.04,Acu-Link.com,2013-12-11 00:09:00,
2013-12-10 18:24:00,27.7,8.7,30.21,NNW,337,0.0,-999.0,44,-99.99,,,0.04,Acu-Link.com,2013-12-11 00:24:00,
2013-12-10 18:40:00,27.0,8.0,30.22,NNW,337,0.0,-999.0,44,-99.99,,,0.04,Acu-Link.com,2013-12-11 00:40:00,
2013-12-10 18:55:00,26.4,7.0,30.22,NNW,337,0.0,-999.0,43,-99.99,,,0.04,Acu-Link.com,2013-12-11 00:55:00,
2013-12-10 19:10:00,26.2,1.1,30.22,NNW,337,0.0,-999.0,33,-99.99,,,0.04,Acu-Link.com,2013-12-11 01:10:00,
2013-12-10 19:25:00,25.9,-9.6,30.22,NNW,337,0.0,-999.0,20,-99.99,,,0.04,Acu-Link.com,2013-12-11 01:25:00,
2013-12-10 19:41:00,25.2,-1.8,30.22,NNW,337,0.0,-999.0,30,-99.99,,,0.04,Acu-Link.com,2013-12-11 01:41:00,
2013-12-10 19:56:00,24.8,-6.0,30.22,NNW,337,0.0,-999.0,25,-99.99,,,0.04,Acu-Link.com,2013-12-11 01:56:00,
2013-12-10 20:11:00,24.3,-4.1,30.22,NNW,337,0.0,-999.0,28,-99.99,,,0.04,Acu-Link.com,2013-12-11 02:11:00,
2013-12-10 20:26:00,23.9,-1.0,30.23,NNW,337,0.0,-999.0,33,-99.99,,,0.04,Acu-Link.com,2013-12-11 02:26:00,
2013-12-10 20:41:00,23.4,-3.4,30.22,NNW,337,0.0,-999.0,30,-99.99,,,0.04,Acu-Link.com,2013-12-11 02:41:00,
2013-12-10 20:56:00,23.2,-1.0,30.22,NNW,337,0.0,-999.0,34,-99.99,,,0.04,Acu-Link.com,2013-12-11 02:56:00,
2013-12-10 21:11:00,23.0,-13.0,30.22,NNW,337,0.0,-999.0,19,-99.99,,,0.04,Acu-Link.com,2013-12-11 03:11:00,
2013-12-10 21:27:00,23.0,-16.4,30.23,NNW,337,0.0,-999.0,16,-99.99,,,0.04,Acu-Link.com,2013-12-11 03:27:00,
2013-12-10 21:42:00,22.6,-20.7,30.23,NNW,337,0.0,-999.0,13,-99.99,,,0.04,Acu-Link.com,2013-12-11 03:42:00,
2013-12-10 21:57:00,22.3,-13.6,30.25,NNW,337,0.0,-999.0,19,-99.99,,,0.04,Acu-Link.com,2013-12-11 03:57:00,
2013-12-10 22:12:00,22.1,-26.1,30.26,NNW,337,0.0,-999.0,10,-99.99,,,0.04,Acu-Link.com,2013-12-11 04:12:00,
2013-12-10 22:27:00,22.1,21.6,30.26,NNW,337,0.0,-999.0,98,-99.99,,,0.04,Acu-Link.com,2013-12-11 04:27:00,
2013-12-10 22:42:00,21.7,-24.6,30.27,NNW,337,0.0,-999.0,11,-99.99,,,0.04,Acu-Link.com,2013-12-11 04:42:00,
2013-12-10 22:58:00,21.4,-23.2,30.27,NNW,337,0.0,-999.0,12,-99.99,,,0.04,Acu-Link.com,2013-12-11 04:58:00,
2013-12-10 23:13:00,21.6,-17.6,30.28,NNW,337,0.0,-999.0,16,-99.99,,,0.04,Acu-Link.com,2013-12-11 05:13:00,
2013-12-10 23:28:00,21.6,-64.6,30.28,NNW,337,0.0,-999.0,0,-99.99,,,0.04,Acu-Link.com,2013-12-11 05:28:00,
2013-12-10 23:43:00,21.4,-39.0,30.28,NNW,337,0.0,-999.0,5,-99.99,,,0.04,Acu-Link.com,2013-12-11 05:43:00,
2013-12-10 23:58:00,21.7,21.2,30.28,NNW,337,0.0,-999.0,98,-99.99,,,0.04,Acu-Link.com,2013-12-11 05:58:00,